Friday, April 29, 2016
23:39 UTC
  |  Log In   |  Register Free
Airport Search:

Olympia Regional Airport
(KOLM)

Airport information sponsored by:
Glacier Jet Center at Olympia Regional (KOLM), Olympia, WA
FAA data valid effective Mar 31 2016 - May 26 2016 (unless otherwise noted).

 
 
 
 
 
 
 
 
 
 
 
 
 
 
Current Aviation Weather for KOLM

Weather Summary


The most recent METAR observation for OLM was updated at: 12:54 UTC
METAR for KOLM is not available. Closest METAR is for KGRF
KOLM  (most recent observation was updatred at 29:22 UTC)
292254Z 05005KT 10SM BKN040 BKN095 16/05 A3014 RMK AO2 SLP207 T01560050

KGRF  (14.7 nm SW)   (most recent observation was updated at 29:22 UTC)
292258Z AUTO 32007KT 10SM FEW033 BKN090 15/07 A3014 RMK AO2 SLP211 T01500072 $

KCLS  (17.9 nm NE)   (most recent observation was updated at 29:23 UTC)
292335Z AUTO 30004KT 9SM -RA CLR 14/10 A3015 RMK AO2

TAF for KOLM is not available.
KOLM
292338Z 3000/3024 03006KT P6SM VCSH SCT025 BKN040 FM300300 VRB03KT P6SM SCT030 BKN050 FM301000 VRB04KT P6SM BKN020 FM301800 VRB04KT P6SM SCT050

KGRF  (14.7 nm SW)   (most recent observation was updatred at UTC)
2921/0103 21009KT 9000 -SHRA BKN025 BKN050 610507 QNH3010INS BECMG 2923/2924 30006KT 9999 NSW BKN030 620503 QNH3016INS BECMG 3008/3009 18006KT 8000 BR SCT025 SCT250 QNH3024INS BECMG 3015/3016 35006KT 9999 NSW SCT030 SCT250 QNH3030INS TX16/3021Z TN05/3012Z


KTCM  (20.2 nm SW)   (most recent observation was updatred at UTC)
2921/0103 VRB06KT 9000 -SHRA SCT015 BKN025 OVC080 610507 QNH3012INS BECMG 2921/2922 29006KT 9999 NSW SCT015 BKN025 OVC100 620506 QNH3015INS BECMG 3007/3008 VRB03KT 6000 BR SCT025 QNH3022INS BECMG 3015/3016 35009KT 9999 NSW SCT030 QNH3028INS BECMG 3018/3019 36010G15KT 9999 FEW050 QNH3024INS T18/3022Z T05/3012Z
GlobalAir.com is loading additional information.
 Current Weather at OLM
58.0 F° (14.4 C°)

East winds at 8.1 mph
Pressure:
30.13 in
Humidity:
56%
Wind:
East at 8.1 mph
Dew Point:
42.1 F° (5.6 C°)
Visibility:
10.00 mi
OLM NOAA Radar




Find All Airport Services Find A Hotel Find A Rental Car Find A Golf Course Find A Restaurant $100 Hamburger



Airport Weather Forecast for KOLM

Translated METAR for KOLM (2254 UTC)
METAR:
KOLM 292254Z 05005KT 10SM BKN040 BKN095 16/05 A3014 RMK AO2 SLP207 T01560050
Conditions at:
KOLM (Olympia Rgnl, WA) observed 2254 UTC 29 April 2016
Temperature:
16°C (60.8°F)
Dewpoint:
5°C (41°F) [RH = 48]
Pressure:
30.14 inches Hg (1020.7 mb)
pressure at sea level is 207 in Hg
Winds:
from the NE (050 degrees) at 5.8 mph (5 knots: 2.6 m/s)
Visibility:
10 mile(s)
Ceiling:
4,000 feet AGL
Clouds:
Broken Cloud Cover at 4,000 feet AGL
Broken Cloud Cover at 9,500 feet AGL
Remarks:
site is automated and HAS a precipitation sensor

Translated TAF for KOLM (Olympia Rgnl, WA) (2338 UTC)
TAF text:
KOLM 292338Z 3000/3024 03006KT P6SM VCSH SCT025 BKN040
Forecast period:
Saturday Apr 30 2016 00:00 UTC - Saturday Apr 30 2016 24:00 UTC
Forecast type:
FROM: standard forecast or significant change
Winds:
from the NNE (030 degrees) at 6.9 mph (6 knots: 3.1 m/s)
Visibility:
6 or more mile(s) (9.7+ km)
Ceiling:
4,000 feet AGL
Clouds:
Scattered Clouds at 2,500 feet AGL
Broken Cloud Cover at 4,000 feet AGL
Weather:
Moderate In Vicinity Shower(s)
TAF text:
FM300300 VRB03KT P6SM SCT030 BKN050
Forecast period:
Saturday Apr 30 2016 03:00 UTC - Saturday Apr 30 2016 10:00 UTC
Forecast type:
FROM: standard forecast or significant change
Winds:
variable wind direction at 3.5 mph (3 knots: 1.5 m/s)
Visibility:
6 or more mile(s) (9.7+ km)
Ceiling:
5,000 feet AGL
Clouds:
Scattered Clouds at 3,000 feet AGL
Broken Cloud Cover at 5,000 feet AGL
Weather:
no significant weather observed at this time
TAF text:
FM301000 VRB04KT P6SM BKN020
Forecast period:
Saturday Apr 30 2016 10:00 UTC - Saturday Apr 30 2016 18:00 UTC
Forecast type:
FROM: standard forecast or significant change
Winds:
variable wind direction at 4.6 mph (4 knots: 2.1 m/s)
Visibility:
6 or more mile(s) (9.7+ km)
Ceiling:
2,000 feet AGL
Clouds:
Broken Cloud Cover at 2,000 feet AGL
Weather:
no significant weather observed at this time
TAF text:
FM301800 VRB04KT P6SM SCT050
Forecast period:
Saturday Apr 30 2016 18:00 UTC - Saturday Apr 30 2016 24:00 UTC
Forecast type:
FROM: standard forecast or significant change
Winds:
variable wind direction at 4.6 mph (4 knots: 2.1 m/s)
Visibility:
6 or more mile(s) (9.7+ km)
Ceiling:
at least 12,000 feet AGL
Clouds:
Scattered Clouds at 5,000 feet AGL
Weather:
no significant weather observed at this time
FBO's on the Field
FBO Company Facility Photos Services Transportation Aviation Fuel Prices: Prices include tax
Catering Weather Repair Courtesy Rental Type 100LL JetA JetA+ MOGAS 8087
 
Glacier Jet Center

Glacier Jet Center logo
Currently rated 5 by 1 person
FS:
Last Updated: Apr-12
Login to update fuel prices
SS:
Contact Glacier Jet CenterMore FBO Information
 
Jorgensen Air Service

Jorgensen Air Service logo
Currently rated 5 by 3 people
FS:
Last Updated: Apr-19
Login to update fuel prices
SS:
Contact Jorgensen Air ServiceMore FBO Information
 
Add another FBO Facility Photos Catering Weather Repair Courtesy Rental Type 100LL JetA JetA+ MOGAS 8087
Services Transportation Aviation Fuel Prices: Prices include tax


model-print
model-print
model-print
model-print